LGSA

Details ICAO LGSA (CHQ)
Name Khania Souda
Region Greece
Timezone Europe/Athens (UTC+3.0)
Plans Departing 171
Arriving 287
Stats Elevation 490 ft / 149 m (AMSL)
Location 35.531592° 24.151184°
Runways 1
Magnetic Variation 4.332° E
Sunrise 2018-06-25 03:10:30 UTC / 2018-06-25 06:10:30 Local
Sunset 2018-06-25 17:43:53 UTC / 2018-06-25 20:43:53 Local
Advertisement - Login to hide

Runways

ID Width Length Bearing (true) Bearing (mag) Surface Threshold Offset Overrun Length
11 148 ft / 45 m 10,967 ft / 3,343 m 111.40° 107.07° Asphalt 0 ft / 0 m 735 ft / 224 m
29 148 ft / 45 m 10,967 ft / 3,343 m 291.42° 287.09° Asphalt 0 ft / 0 m 900 ft / 274 m

Map

Weather


0- 5 10 15 20 25 30 35+ Temperature / ° C

Clouds and Precipitation
Forecast for 2018-06-25 00:00 UTC. Updated an hour ago

Ground ~20,000 ft ~40,000 ft Winds

METAR

LGSA 242150Z 00000KT 9999 FEW025 22/20 Q1012

TAF

TAF LGSA 241700Z 2418/2518 02015KT 9999 SCT025 PROB30 2512/2518 FEW018CB

Frequencies

Ground 121.70 MHz GND
Approach 122.10 MHz APP
Tower 122.10 MHz TWR
Warning: Do not use this data for real-world aviation or navigation. No guarantee of current accuracy is given.